createdAt,value
2022-09-20T00:01:33.955Z,101038.38
2022-09-20T00:04:05.682Z,101037.03
2022-09-20T00:06:34.926Z,101039.78
2022-09-20T00:09:03.896Z,101036.75
2022-09-20T00:11:35.794Z,101038.44
2022-09-20T00:14:08.636Z,101041.84
2022-09-20T00:16:41.263Z,101036.84
2022-09-20T00:19:18.669Z,101035.22
2022-09-20T00:21:46.091Z,101042.97
2022-09-20T00:24:13.897Z,101046.00
2022-09-20T00:26:41.166Z,101049.66
2022-09-20T00:29:08.245Z,101054.09
2022-09-20T00:31:37.266Z,101048.59
2022-09-20T00:34:22.937Z,101048.06
2022-09-20T00:36:50.122Z,101050.75
2022-09-20T00:39:18.066Z,101048.84
2022-09-20T00:41:45.654Z,101057.94
2022-09-20T00:44:53.620Z,101053.75
2022-09-20T00:47:32.697Z,101048.84
2022-09-20T00:50:47.384Z,101050.22
2022-09-20T00:53:29.020Z,101049.94
2022-09-20T00:56:28.556Z,101046.94
2022-09-20T00:59:22.633Z,101055.28
2022-09-20T01:02:08.865Z,101052.59
2022-09-20T01:04:42.736Z,101053.75
2022-09-20T01:07:25.188Z,101049.13
2022-09-20T01:09:52.437Z,101052.75
2022-09-20T01:12:29.268Z,101057.19
2022-09-20T01:15:00.822Z,101047.06
2022-09-20T01:17:36.244Z,101059.41
2022-09-20T01:20:14.746Z,101066.66
2022-09-20T01:23:03.646Z,101061.66
2022-09-20T01:26:07.591Z,101052.00
2022-09-20T01:28:36.628Z,101058.91
2022-09-20T01:31:26.824Z,101064.13
2022-09-20T01:34:09.769Z,101061.66
2022-09-20T01:37:14.997Z,101064.34
2022-09-20T01:40:36.414Z,101059.69
2022-09-20T01:43:16.898Z,101059.97
2022-09-20T01:45:50.247Z,101060.25
2022-09-20T01:48:40.340Z,101066.56
2022-09-20T01:52:09.186Z,101073.22
2022-09-20T01:56:05.709Z,101067.16
2022-09-20T01:59:23.660Z,101064.44
2022-09-20T02:01:54.644Z,101074.34
2022-09-20T02:04:45.861Z,101074.34
2022-09-20T02:08:09.406Z,101068.53
2022-09-20T02:11:23.832Z,101071.28
2022-09-20T02:13:50.739Z,101067.63
2022-09-20T02:17:05.118Z,101069.25
2022-09-20T02:20:06.880Z,101075.25
2022-09-20T02:23:40.574Z,101076.03
2022-09-20T02:27:01.173Z,101084.25
2022-09-20T02:30:05.344Z,101083.13
2022-09-20T02:33:05.053Z,101079.22
2022-09-20T02:36:37.117Z,101086.34
2022-09-20T02:39:35.632Z,101081.63
2022-09-20T02:42:34.674Z,101088.22
2022-09-20T02:45:36.823Z,101081.59
2022-09-20T02:48:05.592Z,101084.56
2022-09-20T02:50:59.849Z,101082.66
2022-09-20T02:53:51.961Z,101095.84
2022-09-20T02:57:11.232Z,101092.75
2022-09-20T03:00:01.949Z,101089.16
2022-09-20T03:03:00.536Z,101094.41
2022-09-20T03:06:30.454Z,101095.22
2022-09-20T03:09:51.685Z,101089.41
2022-09-20T03:12:57.809Z,101089.41
2022-09-20T03:16:30.198Z,101101.28
2022-09-20T03:19:33.620Z,101103.44
2022-09-20T03:22:57.872Z,101101.53
2022-09-20T03:26:03.181Z,101103.97
2022-09-20T03:28:59.807Z,101105.63
2022-09-20T03:32:22.016Z,101111.38
2022-09-20T03:35:45.955Z,101109.66
2022-09-20T03:38:53.567Z,101115.69
2022-09-20T03:42:03.498Z,101116.22
2022-09-20T03:45:16.183Z,101120.56
2022-09-20T03:48:16.706Z,101113.34
2022-09-20T03:51:59.186Z,101111.31
2022-09-20T03:55:33.187Z,101117.84
2022-09-20T03:58:41.344Z,101119.44
2022-09-20T04:01:56.945Z,101119.34
2022-09-20T04:04:55.902Z,101116.50
2022-09-20T04:07:53.084Z,101116.69
2022-09-20T04:11:21.288Z,101123.84
2022-09-20T04:14:11.318Z,101122.72
2022-09-20T04:17:29.179Z,101135.16
2022-09-20T04:20:18.413Z,101135.16
2022-09-20T04:22:53.238Z,101133.97
2022-09-20T04:25:43.720Z,101130.97
2022-09-20T04:28:39.617Z,101140.00
2022-09-20T04:31:36.265Z,101130.34
2022-09-20T04:34:19.517Z,101132.25
2022-09-20T04:37:05.033Z,101129.53
2022-09-20T04:40:15.064Z,101123.78
2022-09-20T04:43:40.919Z,101135.66
2022-09-20T04:46:42.454Z,101125.47
2022-09-20T04:50:01.397Z,101137.38
2022-09-20T04:53:15.673Z,101126.91
2022-09-20T04:56:21.025Z,101134.97
2022-09-20T04:59:09.246Z,101133.84
2022-09-20T05:02:28.605Z,101146.31
2022-09-20T05:06:01.882Z,101144.66
2022-09-20T05:09:11.653Z,101151.84
2022-09-20T05:12:38.070Z,101152.94
2022-09-20T05:15:58.847Z,101156.78
2022-09-20T05:19:17.008Z,101164.25
2022-09-20T05:22:09.855Z,101162.53
2022-09-20T05:25:31.108Z,101170.22
2022-09-20T05:28:16.455Z,101172.66
2022-09-20T05:31:26.304Z,101182.00
2022-09-20T05:34:20.502Z,101184.16
2022-09-20T05:37:16.989Z,101180.50
2022-09-20T05:40:24.777Z,101185.97
2022-09-20T05:43:26.584Z,101194.19
2022-09-20T05:46:36.886Z,101197.72
2022-09-20T05:50:00.922Z,101204.50
2022-09-20T05:53:33.955Z,101202.94
2022-09-20T05:56:14.619Z,101206.97
2022-09-20T05:59:11.892Z,101213.41
2022-09-20T06:02:28.692Z,101214.06
2022-09-20T06:06:28.070Z,101216.97
2022-09-20T06:09:51.728Z,101225.91
2022-09-20T06:12:54.946Z,101224.50
2022-09-20T06:15:58.253Z,101224.94
2022-09-20T06:18:50.193Z,101226.91
2022-09-20T06:21:25.642Z,101231.06
2022-09-20T06:24:02.432Z,101227.47
2022-09-20T06:26:37.995Z,101224.81
2022-09-20T06:29:17.378Z,101235.69
2022-09-20T06:31:44.352Z,101234.53
2022-09-20T06:34:15.959Z,101243.06
2022-09-20T06:37:43.456Z,101237.56
2022-09-20T06:41:01.581Z,101237.00
2022-09-20T06:43:31.575Z,101245.72
2022-09-20T06:45:58.947Z,101241.28
2022-09-20T06:48:26.060Z,101253.81
2022-09-20T06:50:53.012Z,101248.28
2022-09-20T06:53:37.330Z,101254.88
2022-09-20T06:56:04.762Z,101258.91
2022-09-20T06:58:32.469Z,101247.84
2022-09-20T07:00:59.422Z,101256.88
2022-09-20T07:03:26.390Z,101251.34
2022-09-20T07:05:53.599Z,101253.69
2022-09-20T07:08:20.546Z,101259.22
2022-09-20T07:10:47.968Z,101256.84
2022-09-20T07:13:15.015Z,101264.53
2022-09-20T07:15:42.076Z,101269.59
2022-09-20T07:18:09.082Z,101265.47
2022-09-20T07:20:36.165Z,101263.09
2022-09-20T07:23:03.811Z,101270.31
2022-09-20T07:25:32.428Z,101263.03
2022-09-20T07:27:59.569Z,101268.66
2022-09-20T07:30:26.568Z,101262.28
2022-09-20T07:32:53.708Z,101272.75
2022-09-20T07:35:20.619Z,101270.63
2022-09-20T07:37:47.918Z,101267.03
2022-09-20T07:40:15.870Z,101264.91
2022-09-20T07:42:45.384Z,101263.41
2022-09-20T07:45:13.429Z,101280.94
2022-09-20T07:47:42.164Z,101278.19
2022-09-20T07:50:11.759Z,101285.56
2022-09-20T07:52:39.047Z,101282.09
2022-09-20T07:55:06.858Z,101287.84
2022-09-20T07:57:38.903Z,101292.56
2022-09-20T08:00:10.156Z,101289.75
2022-09-20T08:02:37.216Z,101293.34
2022-09-20T08:05:05.106Z,101298.63
2022-09-20T08:07:32.175Z,101295.88
2022-09-20T08:09:59.790Z,101297.03
2022-09-20T08:15:15.026Z,101294.53
2022-09-20T08:17:41.943Z,101305.03
2022-09-20T08:20:09.751Z,101305.69
2022-09-20T08:22:39.006Z,101300.47
2022-09-20T08:25:07.286Z,101305.22
2022-09-20T08:27:34.216Z,101310.13
2022-09-20T08:30:01.292Z,101308.78
2022-09-20T08:32:28.248Z,101313.66
2022-09-20T08:34:55.236Z,101319.91
2022-09-20T08:37:22.165Z,101313.19
2022-09-20T08:39:57.760Z,101321.91
2022-09-20T08:42:42.050Z,101323.38
2022-09-20T08:45:33.701Z,101321.22
2022-09-20T08:48:14.367Z,101323.28
2022-09-20T08:50:42.123Z,101329.03
2022-09-20T08:53:20.961Z,101332.94
2022-09-20T08:55:48.940Z,101336.63
2022-09-20T08:58:16.345Z,101334.34
2022-09-20T09:00:47.223Z,101330.56
2022-09-20T09:03:18.913Z,101329.56
2022-09-20T09:05:53.937Z,101332.22
2022-09-20T09:08:29.487Z,101326.47
2022-09-20T09:11:08.537Z,101333.84
2022-09-20T09:13:48.469Z,101334.22
2022-09-20T09:16:24.651Z,101335.84
2022-09-20T09:18:55.785Z,101346.69
2022-09-20T09:21:34.649Z,101336.38
2022-09-20T09:24:18.079Z,101336.22
2022-09-20T09:26:45.072Z,101333.44
2022-09-20T09:29:24.561Z,101340.22
2022-09-20T09:31:54.898Z,101334.34
2022-09-20T09:34:30.788Z,101345.31
2022-09-20T09:36:59.289Z,101345.31
2022-09-20T09:39:35.830Z,101343.03
2022-09-20T09:42:28.927Z,101342.06
2022-09-20T09:45:24.176Z,101353.94
2022-09-20T09:47:51.107Z,101348.69
2022-09-20T09:50:35.997Z,101353.94
2022-09-20T09:53:15.534Z,101350.88
2022-09-20T09:56:21.738Z,101352.66
2022-09-20T09:59:13.165Z,101352.66
2022-09-20T10:02:37.034Z,101345.25
2022-09-20T10:05:49.409Z,101347.59
2022-09-20T10:09:05.996Z,101345.13
2022-09-20T10:12:29.428Z,101342.44
2022-09-20T10:15:32.880Z,101342.25
2022-09-20T10:18:34.610Z,101340.91
2022-09-20T10:21:54.437Z,101345.31
2022-09-20T10:25:03.418Z,101339.66
2022-09-20T10:27:41.966Z,101344.88
2022-09-20T10:30:20.574Z,101343.16
2022-09-20T10:38:05.777Z,101345.25
2022-09-20T10:41:39.982Z,101348.38
2022-09-20T10:45:00.772Z,101353.31
2022-09-20T10:47:53.023Z,101360.53
2022-09-20T10:50:58.206Z,101347.81
2022-09-20T10:54:30.260Z,101356.53
2022-09-20T10:57:47.390Z,101351.22
2022-09-20T11:01:07.820Z,101358.72
2022-09-20T11:04:22.106Z,101367.59
2022-09-20T11:07:19.565Z,101365.63
2022-09-20T11:10:12.489Z,101370.09
2022-09-20T11:13:02.494Z,101367.28
2022-09-20T11:16:06.281Z,101368.53
2022-09-20T11:19:12.808Z,101369.19
2022-09-20T11:22:02.925Z,101369.44
2022-09-20T11:25:05.180Z,101376.28
2022-09-20T11:27:49.393Z,101372.91
2022-09-20T11:30:24.571Z,101372.94
2022-09-20T11:33:19.281Z,101378.16
2022-09-20T11:36:01.889Z,101385.16
2022-09-20T11:39:03.648Z,101387.56
2022-09-20T11:41:33.551Z,101391.47
2022-09-20T11:44:16.686Z,101401.25
2022-09-20T11:47:50.076Z,101404.88
2022-09-20T11:51:08.885Z,101427.22
2022-09-20T11:54:40.288Z,101432.03
2022-09-20T11:57:16.763Z,101429.66
2022-09-20T11:59:56.858Z,101406.94
2022-09-20T12:02:51.657Z,101419.38
2022-09-20T12:05:42.143Z,101412.41
2022-09-20T12:08:33.788Z,101412.78
2022-09-20T12:11:47.093Z,101415.16
2022-09-20T12:14:58.737Z,101412.91
2022-09-20T12:17:47.133Z,101414.41
2022-09-20T12:20:35.652Z,101418.31
2022-09-20T12:23:40.446Z,101413.72
2022-09-20T12:26:20.431Z,101410.66
2022-09-20T12:29:22.624Z,101410.75
2022-09-20T12:31:57.193Z,101399.94
2022-09-20T12:34:27.297Z,101391.94
2022-09-20T12:36:57.190Z,101398.00
2022-09-20T12:39:36.608Z,101401.44
2022-09-20T12:42:34.314Z,101397.53
2022-09-20T12:45:18.959Z,101404.41
2022-09-20T12:47:56.787Z,101392.22
2022-09-20T12:50:42.751Z,101400.59
2022-09-20T12:53:16.883Z,101393.09
2022-09-20T12:56:03.656Z,101398.97
2022-09-20T12:59:23.287Z,101402.44
2022-09-20T13:01:51.566Z,101405.88
2022-09-20T13:04:54.212Z,101404.88
2022-09-20T13:07:52.189Z,101410.81
2022-09-20T13:10:45.301Z,101406.34
2022-09-20T13:13:31.141Z,101407.84
2022-09-20T13:16:01.866Z,101419.50
2022-09-20T13:18:30.311Z,101414.41
2022-09-20T13:21:07.054Z,101415.69
2022-09-20T13:23:55.376Z,101427.28
2022-09-20T13:26:44.251Z,101443.13
2022-09-20T13:29:44.710Z,101446.47
2022-09-20T13:32:30.365Z,101457.09
2022-09-20T13:35:18.687Z,101456.06
2022-09-20T13:37:54.782Z,101458.00
2022-09-20T13:40:36.395Z,101456.50
2022-09-20T13:43:23.958Z,101457.09
2022-09-20T13:46:14.023Z,101464.09
2022-09-20T13:48:41.207Z,101457.94
2022-09-20T13:51:25.797Z,101461.41
2022-09-20T13:53:53.380Z,101452.25
2022-09-20T13:56:31.992Z,101452.19
2022-09-20T13:59:05.604Z,101452.81
2022-09-20T14:01:36.207Z,101455.69
2022-09-20T14:04:17.487Z,101464.41
2022-09-20T14:06:46.265Z,101469.03
2022-09-20T14:09:38.810Z,101472.47
2022-09-20T14:12:12.535Z,101472.00
2022-09-20T14:14:41.934Z,101470.56
2022-09-20T14:17:16.690Z,101470.16
2022-09-20T14:19:51.372Z,101477.44
2022-09-20T14:22:28.428Z,101469.28
2022-09-20T14:25:22.068Z,101466.09
2022-09-20T14:27:49.027Z,101473.09
2022-09-20T14:30:37.009Z,101465.88
2022-09-20T14:33:20.441Z,101459.84
2022-09-20T14:35:53.114Z,101468.41
2022-09-20T14:38:27.312Z,101461.16
2022-09-20T14:40:54.674Z,101468.38
2022-09-20T14:43:35.423Z,101467.53
2022-09-20T14:46:17.968Z,101468.56
2022-09-20T14:48:45.644Z,101469.84
2022-09-20T14:51:19.029Z,101464.03
2022-09-20T14:54:05.628Z,101472.00
2022-09-20T14:56:49.252Z,101463.88
2022-09-20T14:59:18.992Z,101472.16
2022-09-20T15:02:15.310Z,101469.41
2022-09-20T15:05:01.018Z,101479.84
2022-09-20T15:07:29.062Z,101468.22
2022-09-20T15:09:55.987Z,101467.84
2022-09-20T15:12:25.366Z,101471.16
2022-09-20T15:14:55.259Z,101472.59
2022-09-20T15:17:23.711Z,101480.13
2022-09-20T15:19:50.856Z,101474.91
2022-09-20T15:22:20.893Z,101484.91
2022-09-20T15:25:06.532Z,101483.34
2022-09-20T15:27:33.766Z,101486.41
2022-09-20T15:30:00.678Z,101490.66
2022-09-20T15:32:27.645Z,101487.22
2022-09-20T15:34:55.023Z,101503.72
2022-09-20T15:37:22.035Z,101498.66
2022-09-20T15:39:49.765Z,101501.41
2022-09-20T15:42:17.086Z,101501.03
2022-09-20T15:44:44.055Z,101506.97
2022-09-20T15:47:15.881Z,101504.16
2022-09-20T15:49:46.629Z,101511.78
2022-09-20T15:52:13.912Z,101513.47
2022-09-20T15:54:40.882Z,101511.63
2022-09-20T15:57:08.166Z,101512.59
2022-09-20T15:59:35.367Z,101521.66
2022-09-20T16:02:02.474Z,101521.28
2022-09-20T16:04:30.108Z,101520.41
2022-09-20T16:06:57.143Z,101517.34
2022-09-20T16:09:24.097Z,101523.59
2022-09-20T16:11:51.716Z,101524.72
2022-09-20T16:14:18.730Z,101516.66
2022-09-20T16:16:45.872Z,101510.88
2022-09-20T16:19:22.309Z,101510.50
2022-09-20T16:21:59.183Z,101521.06
2022-09-20T16:24:32.552Z,101514.28
2022-09-20T16:27:02.975Z,101508.84
2022-09-20T16:29:32.149Z,101511.44
2022-09-20T16:32:03.573Z,101514.94
2022-09-20T16:34:36.628Z,101516.44
2022-09-20T16:37:15.716Z,101519.81
2022-09-20T16:39:44.792Z,101518.00
2022-09-20T16:42:17.122Z,101524.72
2022-09-20T16:44:49.637Z,101531.31
2022-09-20T16:47:25.244Z,101538.09
2022-09-20T16:49:54.295Z,101535.75
2022-09-20T16:52:21.385Z,101539.13
2022-09-20T16:54:48.513Z,101538.41
2022-09-20T16:57:16.168Z,101540.66
2022-09-20T16:59:44.442Z,101545.91
2022-09-20T17:02:12.723Z,101551.38
2022-09-20T17:04:40.013Z,101545.81
2022-09-20T17:07:07.257Z,101553.56
2022-09-20T17:09:34.227Z,101552.72
2022-09-20T17:12:03.767Z,101562.06
2022-09-20T17:14:31.316Z,101556.75
2022-09-20T17:16:58.897Z,101557.59
2022-09-20T17:19:26.687Z,101551.44
2022-09-20T17:21:53.719Z,101557.81
2022-09-20T17:24:23.243Z,101551.72
2022-09-20T17:26:52.151Z,101559.22
2022-09-20T17:29:21.033Z,101563.72
2022-09-20T17:31:59.618Z,101561.16
2022-09-20T17:34:29.564Z,101564.53
2022-09-20T17:36:56.541Z,101571.22
2022-09-20T17:39:24.407Z,101566.03
2022-09-20T17:41:51.521Z,101574.72
2022-09-20T17:44:19.050Z,101586.53
2022-09-20T17:46:50.044Z,101584.72
2022-09-20T17:49:23.709Z,101583.66
2022-09-20T17:51:55.396Z,101588.53
2022-09-20T17:54:24.863Z,101588.03
2022-09-20T17:56:56.123Z,101596.56
2022-09-20T17:59:24.259Z,101603.69
2022-09-20T18:01:52.379Z,101604.47
2022-09-20T18:04:21.346Z,101606.63
2022-09-20T18:06:52.493Z,101605.72
2022-09-20T18:09:24.973Z,101605.38
2022-09-20T18:11:55.465Z,101608.91
2022-09-20T18:14:27.686Z,101610.53
2022-09-20T18:17:01.387Z,101613.09
2022-09-20T18:19:33.617Z,101623.13
2022-09-20T18:22:02.813Z,101621.31
2022-09-20T18:24:31.501Z,101616.09
2022-09-20T18:27:00.845Z,101621.38
2022-09-20T18:29:29.373Z,101624.81
2022-09-20T18:31:57.841Z,101631.78
2022-09-20T18:34:32.030Z,101626.28
2022-09-20T18:37:02.992Z,101627.16
2022-09-20T18:39:33.788Z,101633.06
2022-09-20T18:42:03.752Z,101630.13
2022-09-20T18:44:33.671Z,101637.94
2022-09-20T18:47:01.398Z,101635.28
2022-09-20T18:49:29.514Z,101640.66
2022-09-20T18:51:57.650Z,101645.41
2022-09-20T18:54:24.663Z,101648.16
2022-09-20T18:56:52.105Z,101647.13
2022-09-20T18:59:26.953Z,101650.75
2022-09-20T19:02:34.653Z,101654.63
2022-09-20T19:05:39.848Z,101656.88
2022-09-20T19:08:41.038Z,101649.97
2022-09-20T19:11:31.626Z,101656.88
2022-09-20T19:14:21.965Z,101654.66
2022-09-20T19:17:04.518Z,101660.72
2022-09-20T19:19:54.632Z,101649.44
2022-09-20T19:23:25.409Z,101659.97
2022-09-20T19:26:23.855Z,101669.44
2022-09-20T19:28:55.857Z,101674.84
2022-09-20T19:31:33.863Z,101676.56
2022-09-20T19:34:16.644Z,101682.09
2022-09-20T19:37:27.521Z,101683.47
2022-09-20T19:40:40.205Z,101679.94
2022-09-20T19:43:54.705Z,101689.06
2022-09-20T19:46:52.519Z,101690.75
2022-09-20T19:49:52.363Z,101692.19
2022-09-20T19:52:20.227Z,101701.69
2022-09-20T19:54:48.518Z,101705.34
2022-09-20T19:57:43.866Z,101689.34
2022-09-20T20:00:19.674Z,101694.63
2022-09-20T20:02:48.094Z,101698.78
2022-09-20T20:05:25.663Z,101706.75
2022-09-20T20:08:27.597Z,101703.16
2022-09-20T20:11:50.491Z,101697.34
2022-09-20T20:14:46.908Z,101714.22
2022-09-20T20:17:38.625Z,101712.28
2022-09-20T20:20:52.520Z,101714.22
2022-09-20T20:23:48.437Z,101716.72
2022-09-20T20:26:27.067Z,101720.66
2022-09-20T20:28:54.380Z,101721.72
2022-09-20T20:31:22.994Z,101717.03
2022-09-20T20:33:50.291Z,101715.63
2022-09-20T20:36:18.042Z,101718.69
2022-09-20T20:38:49.721Z,101725.63
2022-09-20T20:41:21.758Z,101726.72
2022-09-20T20:43:57.171Z,101729.75
2022-09-20T20:46:25.879Z,101726.72
2022-09-20T20:48:53.078Z,101733.91
2022-09-20T20:51:23.246Z,101735.28
2022-09-20T20:53:54.900Z,101733.06
2022-09-20T20:56:28.659Z,101727.56
2022-09-20T20:59:01.189Z,101741.38
2022-09-20T21:01:33.649Z,101738.63
2022-09-20T21:04:03.058Z,101736.69
2022-09-20T21:06:37.607Z,101742.75
2022-09-20T21:09:05.804Z,101753.22
2022-09-20T21:11:44.262Z,101749.38
2022-09-20T21:14:13.102Z,101755.72
2022-09-20T21:16:43.512Z,101754.59
2022-09-20T21:19:18.820Z,101748.00
2022-09-20T21:21:48.006Z,101749.09
2022-09-20T21:24:17.461Z,101747.72
2022-09-20T21:26:49.055Z,101751.31
2022-09-20T21:29:17.021Z,101748.56
2022-09-20T21:31:47.049Z,101755.44
2022-09-20T21:34:16.817Z,101760.66
2022-09-20T21:36:47.030Z,101760.63
2022-09-20T21:39:14.107Z,101758.97
2022-09-20T21:41:41.803Z,101770.56
2022-09-20T21:44:12.319Z,101773.31
2022-09-20T21:46:42.082Z,101770.00
2022-09-20T21:49:12.687Z,101777.47
2022-09-20T21:51:43.070Z,101777.75
2022-09-20T21:54:11.047Z,101774.97
2022-09-20T21:56:40.386Z,101779.69
2022-09-20T21:59:07.923Z,101789.63
2022-09-20T22:01:40.288Z,101784.09
2022-09-20T22:04:12.857Z,101793.47
2022-09-20T22:06:45.730Z,101779.16
2022-09-20T22:09:19.367Z,101789.88
2022-09-20T22:11:49.220Z,101783.03
2022-09-20T22:14:19.819Z,101789.91
2022-09-20T22:16:51.381Z,101788.81
2022-09-20T22:19:20.442Z,101785.78
2022-09-20T22:21:51.438Z,101785.47
2022-09-20T22:24:19.218Z,101779.97
2022-09-20T22:26:51.075Z,101784.91
2022-09-20T22:29:18.822Z,101787.66
2022-09-20T22:31:48.717Z,101784.09
2022-09-20T22:34:22.241Z,101782.69
2022-09-20T22:36:49.627Z,101786.28
2022-09-20T22:39:17.200Z,101793.44
2022-09-20T22:41:44.982Z,101794.25
2022-09-20T22:44:12.212Z,101796.72
2022-09-20T22:46:40.294Z,101793.69
2022-09-20T22:49:09.397Z,101793.69
2022-09-20T22:51:38.185Z,101797.56
2022-09-20T22:54:10.702Z,101794.81
2022-09-20T22:56:41.263Z,101787.38
2022-09-20T22:59:14.036Z,101793.19
2022-09-20T23:01:48.784Z,101795.91
2022-09-20T23:04:20.204Z,101800.56
2022-09-20T23:06:55.055Z,101794.19
2022-09-20T23:09:28.334Z,101792.53
2022-09-20T23:11:55.795Z,101795.00
2022-09-20T23:14:23.424Z,101795.81
2022-09-20T23:16:50.939Z,101786.44
2022-09-20T23:19:18.326Z,101789.44
2022-09-20T23:21:46.115Z,101796.63
2022-09-20T23:24:16.639Z,101796.34
2022-09-20T23:26:44.615Z,101800.44
2022-09-20T23:29:16.370Z,101798.72
2022-09-20T23:31:47.799Z,101798.97
2022-09-20T23:34:17.333Z,101797.00
2022-09-20T23:36:46.326Z,101808.00
2022-09-20T23:39:15.417Z,101817.06
2022-09-20T23:41:45.796Z,101813.97
2022-09-20T23:44:15.678Z,101822.53
2022-09-20T23:46:42.669Z,101814.56
2022-09-20T23:49:09.632Z,101815.94
2022-09-20T23:51:37.814Z,101820.66
2022-09-20T23:54:05.461Z,101816.25
2022-09-20T23:56:32.638Z,101818.19
2022-09-20T23:58:59.778Z,101812.13
